sensor_id;sensor_type;location;lat;lon;timestamp;P1;durP1;ratioP1;P2;durP2;ratioP2
70866;SDS011;58487;53.474;49.470;2023-05-07T00:00:58;7.57;;;3.00;;
70866;SDS011;58487;53.474;49.470;2023-05-07T00:03:25;7.93;;;3.00;;
70866;SDS011;58487;53.474;49.470;2023-05-07T00:05:52;7.18;;;2.63;;
70866;SDS011;58487;53.474;49.470;2023-05-07T00:08:18;7.10;;;2.50;;
70866;SDS011;58487;53.474;49.470;2023-05-07T00:10:46;9.27;;;3.05;;
70866;SDS011;58487;53.474;49.470;2023-05-07T00:13:12;8.75;;;3.58;;
70866;SDS011;58487;53.474;49.470;2023-05-07T00:15:38;10.20;;;4.68;;
70866;SDS011;58487;53.474;49.470;2023-05-07T00:18:04;7.72;;;3.70;;
70866;SDS011;58487;53.474;49.470;2023-05-07T00:20:31;10.40;;;4.57;;
70866;SDS011;58487;53.474;49.470;2023-05-07T00:22:57;15.02;;;4.13;;
70866;SDS011;58487;53.474;49.470;2023-05-07T00:25:23;7.70;;;3.80;;
70866;SDS011;58487;53.474;49.470;2023-05-07T00:27:49;8.05;;;3.55;;
70866;SDS011;58487;53.474;49.470;2023-05-07T00:30:15;8.27;;;3.35;;
70866;SDS011;58487;53.474;49.470;2023-05-07T00:32:42;5.87;;;2.73;;
70866;SDS011;58487;53.474;49.470;2023-05-07T00:35:11;6.35;;;3.08;;
70866;SDS011;58487;53.474;49.470;2023-05-07T00:37:37;5.57;;;2.60;;
70866;SDS011;58487;53.474;49.470;2023-05-07T00:40:03;6.57;;;2.47;;
70866;SDS011;58487;53.474;49.470;2023-05-07T00:42:32;8.70;;;2.55;;
70866;SDS011;58487;53.474;49.470;2023-05-07T00:44:58;5.43;;;2.40;;
70866;SDS011;58487;53.474;49.470;2023-05-07T00:47:25;7.63;;;2.30;;
70866;SDS011;58487;53.474;49.470;2023-05-07T00:49:51;5.45;;;2.10;;
70866;SDS011;58487;53.474;49.470;2023-05-07T00:52:18;5.65;;;2.25;;
70866;SDS011;58487;53.474;49.470;2023-05-07T00:54:47;5.32;;;2.35;;
70866;SDS011;58487;53.474;49.470;2023-05-07T00:57:13;6.30;;;2.57;;
70866;SDS011;58487;53.474;49.470;2023-05-07T00:59:40;4.93;;;2.20;;
70866;SDS011;58487;53.474;49.470;2023-05-07T01:02:07;4.90;;;2.00;;
70866;SDS011;58487;53.474;49.470;2023-05-07T01:04:33;5.18;;;2.10;;
70866;SDS011;58487;53.474;49.470;2023-05-07T01:06:59;4.43;;;1.83;;
70866;SDS011;58487;53.474;49.470;2023-05-07T01:09:28;4.43;;;2.10;;
70866;SDS011;58487;53.474;49.470;2023-05-07T01:11:55;5.78;;;2.20;;
70866;SDS011;58487;53.474;49.470;2023-05-07T01:14:23;5.95;;;2.20;;
70866;SDS011;58487;53.474;49.470;2023-05-07T01:16:51;5.45;;;2.20;;
70866;SDS011;58487;53.474;49.470;2023-05-07T01:19:17;6.38;;;1.90;;
70866;SDS011;58487;53.474;49.470;2023-05-07T01:21:45;6.40;;;2.10;;
70866;SDS011;58487;53.474;49.470;2023-05-07T01:24:13;5.97;;;1.90;;
70866;SDS011;58487;53.474;49.470;2023-05-07T01:26:40;7.95;;;2.22;;
70866;SDS011;58487;53.474;49.470;2023-05-07T01:29:07;7.10;;;2.58;;
70866;SDS011;58487;53.474;49.470;2023-05-07T01:31:34;5.75;;;2.08;;
70866;SDS011;58487;53.474;49.470;2023-05-07T01:34:02;5.40;;;2.20;;
70866;SDS011;58487;53.474;49.470;2023-05-07T01:36:30;7.18;;;2.47;;
70866;SDS011;58487;53.474;49.470;2023-05-07T01:38:58;5.82;;;2.40;;
70866;SDS011;58487;53.474;49.470;2023-05-07T01:41:25;4.95;;;2.30;;
70866;SDS011;58487;53.474;49.470;2023-05-07T01:43:52;6.40;;;2.95;;
70866;SDS011;58487;53.474;49.470;2023-05-07T01:46:19;5.50;;;2.20;;
70866;SDS011;58487;53.474;49.470;2023-05-07T01:48:45;4.88;;;2.17;;
70866;SDS011;58487;53.474;49.470;2023-05-07T01:51:12;5.55;;;2.50;;
70866;SDS011;58487;53.474;49.470;2023-05-07T01:53:39;6.93;;;2.60;;
70866;SDS011;58487;53.474;49.470;2023-05-07T01:56:06;6.13;;;2.63;;
70866;SDS011;58487;53.474;49.470;2023-05-07T01:58:33;4.73;;;1.97;;
70866;SDS011;58487;53.474;49.470;2023-05-07T02:00:59;4.90;;;2.03;;
70866;SDS011;58487;53.474;49.470;2023-05-07T02:03:25;5.45;;;2.30;;
70866;SDS011;58487;53.474;49.470;2023-05-07T02:05:51;6.38;;;2.60;;
70866;SDS011;58487;53.474;49.470;2023-05-07T02:08:18;6.85;;;2.63;;
70866;SDS011;58487;53.474;49.470;2023-05-07T02:10:44;4.97;;;2.07;;
70866;SDS011;58487;53.474;49.470;2023-05-07T02:13:10;6.40;;;2.53;;
70866;SDS011;58487;53.474;49.470;2023-05-07T02:15:36;5.35;;;1.92;;
70866;SDS011;58487;53.474;49.470;2023-05-07T02:18:03;5.55;;;2.20;;
70866;SDS011;58487;53.474;49.470;2023-05-07T02:20:31;5.20;;;2.10;;
70866;SDS011;58487;53.474;49.470;2023-05-07T02:22:58;5.40;;;2.63;;
70866;SDS011;58487;53.474;49.470;2023-05-07T02:25:24;6.88;;;2.33;;
70866;SDS011;58487;53.474;49.470;2023-05-07T02:27:50;5.85;;;2.67;;
70866;SDS011;58487;53.474;49.470;2023-05-07T02:30:16;5.47;;;2.30;;
70866;SDS011;58487;53.474;49.470;2023-05-07T02:32:43;5.43;;;2.40;;
70866;SDS011;58487;53.474;49.470;2023-05-07T02:35:09;6.83;;;2.73;;
70866;SDS011;58487;53.474;49.470;2023-05-07T02:37:35;5.28;;;2.10;;
70866;SDS011;58487;53.474;49.470;2023-05-07T02:40:02;11.07;;;3.30;;
70866;SDS011;58487;53.474;49.470;2023-05-07T02:42:29;6.30;;;3.22;;
70866;SDS011;58487;53.474;49.470;2023-05-07T02:44:56;9.57;;;3.65;;
70866;SDS011;58487;53.474;49.470;2023-05-07T02:47:22;11.33;;;3.93;;
70866;SDS011;58487;53.474;49.470;2023-05-07T02:49:48;9.32;;;3.90;;
70866;SDS011;58487;53.474;49.470;2023-05-07T02:52:15;8.57;;;4.15;;
70866;SDS011;58487;53.474;49.470;2023-05-07T02:54:41;10.75;;;4.18;;
70866;SDS011;58487;53.474;49.470;2023-05-07T02:57:07;9.27;;;3.88;;
70866;SDS011;58487;53.474;49.470;2023-05-07T02:59:33;12.37;;;4.67;;
70866;SDS011;58487;53.474;49.470;2023-05-07T03:01:59;9.48;;;3.97;;
70866;SDS011;58487;53.474;49.470;2023-05-07T03:04:25;9.73;;;3.90;;
70866;SDS011;58487;53.474;49.470;2023-05-07T03:06:52;7.78;;;3.33;;
70866;SDS011;58487;53.474;49.470;2023-05-07T03:09:18;10.00;;;3.75;;
70866;SDS011;58487;53.474;49.470;2023-05-07T03:11:44;11.50;;;3.60;;
70866;SDS011;58487;53.474;49.470;2023-05-07T03:14:11;8.38;;;3.58;;
70866;SDS011;58487;53.474;49.470;2023-05-07T03:16:37;8.18;;;3.25;;
70866;SDS011;58487;53.474;49.470;2023-05-07T03:19:03;11.52;;;3.17;;
70866;SDS011;58487;53.474;49.470;2023-05-07T03:21:30;7.60;;;2.80;;
70866;SDS011;58487;53.474;49.470;2023-05-07T03:23:56;5.30;;;2.00;;
70866;SDS011;58487;53.474;49.470;2023-05-07T03:26:22;7.30;;;2.58;;
70866;SDS011;58487;53.474;49.470;2023-05-07T03:28:48;6.53;;;2.90;;
70866;SDS011;58487;53.474;49.470;2023-05-07T03:31:15;11.05;;;2.60;;
70866;SDS011;58487;53.474;49.470;2023-05-07T03:33:54;7.22;;;2.85;;
70866;SDS011;58487;53.474;49.470;2023-05-07T03:36:22;6.00;;;2.67;;
70866;SDS011;58487;53.474;49.470;2023-05-07T03:38:49;12.32;;;3.08;;
70866;SDS011;58487;53.474;49.470;2023-05-07T03:41:15;7.35;;;3.05;;
70866;SDS011;58487;53.474;49.470;2023-05-07T03:43:41;9.20;;;3.40;;
70866;SDS011;58487;53.474;49.470;2023-05-07T03:46:08;8.27;;;3.40;;
70866;SDS011;58487;53.474;49.470;2023-05-07T03:48:34;6.97;;;2.93;;
70866;SDS011;58487;53.474;49.470;2023-05-07T03:51:00;11.63;;;4.50;;
70866;SDS011;58487;53.474;49.470;2023-05-07T03:53:27;7.70;;;3.30;;
70866;SDS011;58487;53.474;49.470;2023-05-07T03:55:53;8.10;;;3.00;;
70866;SDS011;58487;53.474;49.470;2023-05-07T03:58:19;5.90;;;2.70;;
70866;SDS011;58487;53.474;49.470;2023-05-07T04:00:45;6.93;;;2.67;;
70866;SDS011;58487;53.474;49.470;2023-05-07T04:03:11;7.95;;;2.80;;
70866;SDS011;58487;53.474;49.470;2023-05-07T04:05:37;5.88;;;2.63;;
70866;SDS011;58487;53.474;49.470;2023-05-07T04:08:04;7.65;;;2.40;;
70866;SDS011;58487;53.474;49.470;2023-05-07T04:10:31;5.25;;;2.28;;
70866;SDS011;58487;53.474;49.470;2023-05-07T04:12:57;4.73;;;2.10;;
70866;SDS011;58487;53.474;49.470;2023-05-07T04:15:23;6.15;;;2.33;;
70866;SDS011;58487;53.474;49.470;2023-05-07T04:17:50;5.68;;;2.03;;
70866;SDS011;58487;53.474;49.470;2023-05-07T04:20:16;7.40;;;2.10;;
70866;SDS011;58487;53.474;49.470;2023-05-07T04:22:43;4.95;;;1.52;;
70866;SDS011;58487;53.474;49.470;2023-05-07T04:25:09;5.00;;;1.57;;
70866;SDS011;58487;53.474;49.470;2023-05-07T04:27:35;7.35;;;2.13;;
70866;SDS011;58487;53.474;49.470;2023-05-07T04:30:02;7.45;;;1.60;;
70866;SDS011;58487;53.474;49.470;2023-05-07T04:32:29;6.55;;;1.70;;
70866;SDS011;58487;53.474;49.470;2023-05-07T04:34:56;4.82;;;1.67;;
70866;SDS011;58487;53.474;49.470;2023-05-07T04:37:22;5.43;;;1.90;;
70866;SDS011;58487;53.474;49.470;2023-05-07T04:39:48;5.47;;;1.92;;
70866;SDS011;58487;53.474;49.470;2023-05-07T04:42:15;4.10;;;1.38;;
70866;SDS011;58487;53.474;49.470;2023-05-07T04:44:43;4.15;;;1.63;;
70866;SDS011;58487;53.474;49.470;2023-05-07T04:47:10;5.70;;;1.75;;
70866;SDS011;58487;53.474;49.470;2023-05-07T04:49:40;3.43;;;1.13;;
70866;SDS011;58487;53.474;49.470;2023-05-07T04:52:06;4.35;;;1.60;;
70866;SDS011;58487;53.474;49.470;2023-05-07T04:54:32;4.95;;;1.60;;
70866;SDS011;58487;53.474;49.470;2023-05-07T04:56:59;5.78;;;1.67;;
70866;SDS011;58487;53.474;49.470;2023-05-07T04:59:25;5.63;;;1.80;;
70866;SDS011;58487;53.474;49.470;2023-05-07T05:01:51;4.00;;;1.30;;
70866;SDS011;58487;53.474;49.470;2023-05-07T05:04:17;4.28;;;1.60;;
70866;SDS011;58487;53.474;49.470;2023-05-07T05:06:43;7.05;;;1.80;;
70866;SDS011;58487;53.474;49.470;2023-05-07T05:09:10;7.25;;;2.10;;
70866;SDS011;58487;53.474;49.470;2023-05-07T05:11:36;6.53;;;1.67;;
70866;SDS011;58487;53.474;49.470;2023-05-07T05:14:02;4.73;;;1.80;;
70866;SDS011;58487;53.474;49.470;2023-05-07T05:16:28;7.90;;;3.03;;
70866;SDS011;58487;53.474;49.470;2023-05-07T05:18:55;7.13;;;2.13;;
70866;SDS011;58487;53.474;49.470;2023-05-07T05:21:21;4.43;;;1.80;;
70866;SDS011;58487;53.474;49.470;2023-05-07T05:23:47;6.90;;;1.80;;
70866;SDS011;58487;53.474;49.470;2023-05-07T05:26:13;3.47;;;1.37;;
70866;SDS011;58487;53.474;49.470;2023-05-07T05:28:40;4.90;;;1.70;;
70866;SDS011;58487;53.474;49.470;2023-05-07T05:31:06;5.50;;;1.83;;
70866;SDS011;58487;53.474;49.470;2023-05-07T05:33:32;6.63;;;1.60;;
70866;SDS011;58487;53.474;49.470;2023-05-07T05:35:58;5.60;;;1.90;;
70866;SDS011;58487;53.474;49.470;2023-05-07T05:38:25;4.63;;;1.63;;
70866;SDS011;58487;53.474;49.470;2023-05-07T05:40:52;5.30;;;1.73;;
70866;SDS011;58487;53.474;49.470;2023-05-07T05:43:18;4.25;;;1.60;;
70866;SDS011;58487;53.474;49.470;2023-05-07T05:45:44;3.65;;;1.45;;
70866;SDS011;58487;53.474;49.470;2023-05-07T05:48:10;5.47;;;1.42;;
70866;SDS011;58487;53.474;49.470;2023-05-07T05:50:36;7.93;;;1.73;;
70866;SDS011;58487;53.474;49.470;2023-05-07T05:53:03;3.80;;;1.45;;
70866;SDS011;58487;53.474;49.470;2023-05-07T05:55:29;4.10;;;1.50;;
70866;SDS011;58487;53.474;49.470;2023-05-07T05:57:58;3.50;;;1.50;;
70866;SDS011;58487;53.474;49.470;2023-05-07T06:00:25;5.63;;;1.75;;
70866;SDS011;58487;53.474;49.470;2023-05-07T06:02:52;5.67;;;1.60;;
70866;SDS011;58487;53.474;49.470;2023-05-07T06:05:18;3.72;;;1.50;;
70866;SDS011;58487;53.474;49.470;2023-05-07T06:07:44;4.82;;;1.70;;
70866;SDS011;58487;53.474;49.470;2023-05-07T06:10:10;5.53;;;1.60;;
70866;SDS011;58487;53.474;49.470;2023-05-07T06:12:37;5.72;;;2.00;;
70866;SDS011;58487;53.474;49.470;2023-05-07T06:15:03;3.90;;;1.70;;
70866;SDS011;58487;53.474;49.470;2023-05-07T06:17:30;4.32;;;1.58;;
70866;SDS011;58487;53.474;49.470;2023-05-07T06:19:56;4.15;;;1.60;;
70866;SDS011;58487;53.474;49.470;2023-05-07T06:22:22;4.60;;;1.90;;
70866;SDS011;58487;53.474;49.470;2023-05-07T06:24:48;4.68;;;1.42;;
70866;SDS011;58487;53.474;49.470;2023-05-07T06:27:14;3.87;;;1.60;;
70866;SDS011;58487;53.474;49.470;2023-05-07T06:29:41;4.10;;;1.50;;
70866;SDS011;58487;53.474;49.470;2023-05-07T06:32:10;3.67;;;1.42;;
70866;SDS011;58487;53.474;49.470;2023-05-07T06:34:38;5.15;;;1.50;;
70866;SDS011;58487;53.474;49.470;2023-05-07T06:37:06;4.45;;;1.63;;
70866;SDS011;58487;53.474;49.470;2023-05-07T06:39:32;3.57;;;1.50;;
70866;SDS011;58487;53.474;49.470;2023-05-07T06:42:01;3.83;;;1.40;;
70866;SDS011;58487;53.474;49.470;2023-05-07T06:44:29;4.28;;;1.20;;
70866;SDS011;58487;53.474;49.470;2023-05-07T06:46:56;5.57;;;1.30;;
70866;SDS011;58487;53.474;49.470;2023-05-07T06:49:22;4.28;;;1.50;;
70866;SDS011;58487;53.474;49.470;2023-05-07T06:51:48;4.50;;;1.37;;
70866;SDS011;58487;53.474;49.470;2023-05-07T06:54:15;5.53;;;1.40;;
70866;SDS011;58487;53.474;49.470;2023-05-07T06:56:41;7.40;;;2.63;;
70866;SDS011;58487;53.474;49.470;2023-05-07T06:59:07;9.05;;;3.33;;
70866;SDS011;58487;53.474;49.470;2023-05-07T07:01:36;4.60;;;1.50;;
70866;SDS011;58487;53.474;49.470;2023-05-07T07:04:03;8.00;;;1.60;;
70866;SDS011;58487;53.474;49.470;2023-05-07T07:06:29;4.47;;;1.25;;
70866;SDS011;58487;53.474;49.470;2023-05-07T07:08:57;3.78;;;1.20;;
70866;SDS011;58487;53.474;49.470;2023-05-07T07:11:24;4.28;;;1.10;;
70866;SDS011;58487;53.474;49.470;2023-05-07T07:13:53;3.53;;;1.50;;
70866;SDS011;58487;53.474;49.470;2023-05-07T07:16:20;5.27;;;1.10;;
70866;SDS011;58487;53.474;49.470;2023-05-07T07:18:52;3.38;;;1.08;;
70866;SDS011;58487;53.474;49.470;2023-05-07T07:21:18;3.55;;;1.30;;
70866;SDS011;58487;53.474;49.470;2023-05-07T07:23:46;4.38;;;1.30;;
70866;SDS011;58487;53.474;49.470;2023-05-07T07:26:13;4.05;;;1.40;;
70866;SDS011;58487;53.474;49.470;2023-05-07T07:28:45;3.50;;;1.50;;
70866;SDS011;58487;53.474;49.470;2023-05-07T07:31:12;3.50;;;1.30;;
70866;SDS011;58487;53.474;49.470;2023-05-07T07:33:38;3.38;;;1.30;;
70866;SDS011;58487;53.474;49.470;2023-05-07T07:36:09;4.53;;;1.50;;
70866;SDS011;58487;53.474;49.470;2023-05-07T07:38:35;3.40;;;1.20;;
70866;SDS011;58487;53.474;49.470;2023-05-07T07:41:04;3.70;;;1.33;;
70866;SDS011;58487;53.474;49.470;2023-05-07T07:43:30;3.80;;;1.50;;
70866;SDS011;58487;53.474;49.470;2023-05-07T07:46:00;3.53;;;1.40;;
70866;SDS011;58487;53.474;49.470;2023-05-07T07:48:26;4.78;;;1.30;;
70866;SDS011;58487;53.474;49.470;2023-05-07T07:50:52;3.17;;;1.05;;
70866;SDS011;58487;53.474;49.470;2023-05-07T07:53:22;5.60;;;1.83;;
70866;SDS011;58487;53.474;49.470;2023-05-07T07:55:48;7.78;;;1.40;;
70866;SDS011;58487;53.474;49.470;2023-05-07T07:58:14;4.10;;;1.63;;
70866;SDS011;58487;53.474;49.470;2023-05-07T08:00:44;5.60;;;2.10;;
70866;SDS011;58487;53.474;49.470;2023-05-07T08:03:10;3.72;;;1.38;;
70866;SDS011;58487;53.474;49.470;2023-05-07T08:05:36;3.33;;;1.27;;
70866;SDS011;58487;53.474;49.470;2023-05-07T08:08:04;4.40;;;1.40;;
70866;SDS011;58487;53.474;49.470;2023-05-07T08:10:30;3.60;;;1.40;;
70866;SDS011;58487;53.474;49.470;2023-05-07T08:13:00;6.18;;;1.50;;
70866;SDS011;58487;53.474;49.470;2023-05-07T08:15:34;3.58;;;1.42;;
70866;SDS011;58487;53.474;49.470;2023-05-07T08:18:01;4.60;;;1.50;;
70866;SDS011;58487;53.474;49.470;2023-05-07T08:20:28;4.13;;;1.55;;
70866;SDS011;58487;53.474;49.470;2023-05-07T08:22:54;4.35;;;1.30;;
70866;SDS011;58487;53.474;49.470;2023-05-07T08:25:20;3.40;;;1.40;;
70866;SDS011;58487;53.474;49.470;2023-05-07T08:27:47;3.50;;;1.52;;
70866;SDS011;58487;53.474;49.470;2023-05-07T08:30:13;3.60;;;1.43;;
70866;SDS011;58487;53.474;49.470;2023-05-07T08:32:40;3.92;;;1.38;;
70866;SDS011;58487;53.474;49.470;2023-05-07T08:35:07;3.50;;;1.40;;
70866;SDS011;58487;53.474;49.470;2023-05-07T08:37:33;3.78;;;1.40;;
70866;SDS011;58487;53.474;49.470;2023-05-07T08:40:00;4.85;;;1.50;;
70866;SDS011;58487;53.474;49.470;2023-05-07T08:42:26;5.50;;;1.77;;
70866;SDS011;58487;53.474;49.470;2023-05-07T08:44:57;5.32;;;1.60;;
70866;SDS011;58487;53.474;49.470;2023-05-07T08:47:29;5.55;;;2.10;;
70866;SDS011;58487;53.474;49.470;2023-05-07T08:50:00;4.60;;;1.80;;
70866;SDS011;58487;53.474;49.470;2023-05-07T08:52:29;5.18;;;1.95;;
70866;SDS011;58487;53.474;49.470;2023-05-07T08:54:56;4.27;;;1.80;;
70866;SDS011;58487;53.474;49.470;2023-05-07T08:57:25;3.50;;;1.50;;
70866;SDS011;58487;53.474;49.470;2023-05-07T08:59:52;5.45;;;1.70;;
70866;SDS011;58487;53.474;49.470;2023-05-07T09:02:26;4.28;;;1.60;;
70866;SDS011;58487;53.474;49.470;2023-05-07T09:04:53;4.05;;;1.70;;
70866;SDS011;58487;53.474;49.470;2023-05-07T09:07:22;5.03;;;1.93;;
70866;SDS011;58487;53.474;49.470;2023-05-07T09:09:50;3.75;;;1.60;;
70866;SDS011;58487;53.474;49.470;2023-05-07T09:12:17;5.40;;;1.80;;
70866;SDS011;58487;53.474;49.470;2023-05-07T09:14:45;4.32;;;1.70;;
70866;SDS011;58487;53.474;49.470;2023-05-07T09:17:11;4.35;;;1.50;;
70866;SDS011;58487;53.474;49.470;2023-05-07T09:19:38;6.17;;;1.70;;
70866;SDS011;58487;53.474;49.470;2023-05-07T09:22:05;4.85;;;1.70;;
70866;SDS011;58487;53.474;49.470;2023-05-07T09:24:37;9.25;;;2.00;;
70866;SDS011;58487;53.474;49.470;2023-05-07T09:27:06;4.15;;;1.50;;
70866;SDS011;58487;53.474;49.470;2023-05-07T09:29:37;4.25;;;1.98;;
70866;SDS011;58487;53.474;49.470;2023-05-07T09:32:03;5.43;;;1.80;;
70866;SDS011;58487;53.474;49.470;2023-05-07T09:34:33;3.90;;;1.65;;
70866;SDS011;58487;53.474;49.470;2023-05-07T09:37:01;4.38;;;1.80;;
70866;SDS011;58487;53.474;49.470;2023-05-07T09:39:49;4.75;;;2.10;;
70866;SDS011;58487;53.474;49.470;2023-05-07T09:42:22;4.80;;;2.22;;
70866;SDS011;58487;53.474;49.470;2023-05-07T09:44:50;6.47;;;3.37;;
70866;SDS011;58487;53.474;49.470;2023-05-07T09:47:20;4.90;;;2.40;;
70866;SDS011;58487;53.474;49.470;2023-05-07T09:49:49;6.32;;;2.50;;
70866;SDS011;58487;53.474;49.470;2023-05-07T09:52:18;6.28;;;2.10;;
70866;SDS011;58487;53.474;49.470;2023-05-07T09:54:46;6.90;;;3.03;;
70866;SDS011;58487;53.474;49.470;2023-05-07T09:57:13;5.50;;;2.73;;
70866;SDS011;58487;53.474;49.470;2023-05-07T09:59:42;6.03;;;2.47;;
70866;SDS011;58487;53.474;49.470;2023-05-07T10:02:09;4.95;;;2.35;;
70866;SDS011;58487;53.474;49.470;2023-05-07T10:04:36;6.32;;;2.40;;
70866;SDS011;58487;53.474;49.470;2023-05-07T10:07:03;5.07;;;2.10;;
70866;SDS011;58487;53.474;49.470;2023-05-07T10:09:30;5.30;;;2.10;;
70866;SDS011;58487;53.474;49.470;2023-05-07T10:11:57;5.07;;;2.22;;
70866;SDS011;58487;53.474;49.470;2023-05-07T10:14:24;5.00;;;2.22;;
70866;SDS011;58487;53.474;49.470;2023-05-07T10:16:52;6.60;;;1.80;;
70866;SDS011;58487;53.474;49.470;2023-05-07T10:19:20;4.47;;;2.20;;
70866;SDS011;58487;53.474;49.470;2023-05-07T10:21:54;5.73;;;2.20;;
70866;SDS011;58487;53.474;49.470;2023-05-07T10:24:26;6.15;;;2.45;;
70866;SDS011;58487;53.474;49.470;2023-05-07T10:26:58;5.00;;;2.30;;
70866;SDS011;58487;53.474;49.470;2023-05-07T10:31:54;5.40;;;2.03;;
70866;SDS011;58487;53.474;49.470;2023-05-07T10:34:23;4.00;;;2.00;;
70866;SDS011;58487;53.474;49.470;2023-05-07T10:36:53;5.32;;;2.00;;
70866;SDS011;58487;53.474;49.470;2023-05-07T10:39:21;3.95;;;1.83;;
70866;SDS011;58487;53.474;49.470;2023-05-07T10:41:48;4.68;;;2.20;;
70866;SDS011;58487;53.474;49.470;2023-05-07T10:44:28;4.75;;;2.20;;
70866;SDS011;58487;53.474;49.470;2023-05-07T10:49:30;4.97;;;2.28;;
70866;SDS011;58487;53.474;49.470;2023-05-07T10:52:12;4.30;;;2.40;;
70866;SDS011;58487;53.474;49.470;2023-05-07T10:54:40;5.07;;;2.50;;
70866;SDS011;58487;53.474;49.470;2023-05-07T10:59:59;5.43;;;1.90;;
70866;SDS011;58487;53.474;49.470;2023-05-07T11:05:40;5.35;;;2.38;;
70866;SDS011;58487;53.474;49.470;2023-05-07T11:08:08;5.30;;;2.30;;
70866;SDS011;58487;53.474;49.470;2023-05-07T11:13:16;5.70;;;2.40;;
70866;SDS011;58487;53.474;49.470;2023-05-07T11:15:44;9.05;;;3.80;;
70866;SDS011;58487;53.474;49.470;2023-05-07T11:18:13;5.15;;;1.80;;
70866;SDS011;58487;53.474;49.470;2023-05-07T11:20:51;5.28;;;2.20;;
70866;SDS011;58487;53.474;49.470;2023-05-07T11:26:00;5.37;;;2.73;;
70866;SDS011;58487;53.474;49.470;2023-05-07T11:28:37;5.40;;;1.92;;
70866;SDS011;58487;53.474;49.470;2023-05-07T11:31:04;6.32;;;2.10;;
70866;SDS011;58487;53.474;49.470;2023-05-07T11:33:31;4.60;;;1.80;;
70866;SDS011;58487;53.474;49.470;2023-05-07T11:36:03;4.72;;;2.00;;
70866;SDS011;58487;53.474;49.470;2023-05-07T11:38:34;6.30;;;2.00;;
70866;SDS011;58487;53.474;49.470;2023-05-07T11:41:01;6.32;;;2.10;;
70866;SDS011;58487;53.474;49.470;2023-05-07T11:43:31;4.40;;;2.30;;
70866;SDS011;58487;53.474;49.470;2023-05-07T11:46:08;4.55;;;2.00;;
70866;SDS011;58487;53.474;49.470;2023-05-07T11:48:39;4.85;;;2.20;;
70866;SDS011;58487;53.474;49.470;2023-05-07T11:51:07;4.70;;;2.27;;
70866;SDS011;58487;53.474;49.470;2023-05-07T11:53:45;4.00;;;2.05;;
70866;SDS011;58487;53.474;49.470;2023-05-07T11:56:12;4.25;;;2.00;;
70866;SDS011;58487;53.474;49.470;2023-05-07T11:58:40;5.20;;;1.77;;
70866;SDS011;58487;53.474;49.470;2023-05-07T12:01:10;4.28;;;1.88;;
70866;SDS011;58487;53.474;49.470;2023-05-07T12:03:39;4.53;;;1.80;;
70866;SDS011;58487;53.474;49.470;2023-05-07T12:06:11;4.63;;;1.90;;
70866;SDS011;58487;53.474;49.470;2023-05-07T12:08:39;8.77;;;1.70;;
70866;SDS011;58487;53.474;49.470;2023-05-07T12:11:16;4.32;;;1.92;;
70866;SDS011;58487;53.474;49.470;2023-05-07T12:13:49;8.35;;;2.50;;
70866;SDS011;58487;53.474;49.470;2023-05-07T12:16:15;5.87;;;2.40;;
70866;SDS011;58487;53.474;49.470;2023-05-07T12:18:44;7.25;;;2.70;;
70866;SDS011;58487;53.474;49.470;2023-05-07T12:21:11;5.25;;;2.25;;
70866;SDS011;58487;53.474;49.470;2023-05-07T12:23:38;5.82;;;2.47;;
70866;SDS011;58487;53.474;49.470;2023-05-07T12:26:05;4.45;;;2.08;;
70866;SDS011;58487;53.474;49.470;2023-05-07T12:28:36;4.43;;;2.10;;
70866;SDS011;58487;53.474;49.470;2023-05-07T12:31:04;4.00;;;1.83;;
70866;SDS011;58487;53.474;49.470;2023-05-07T12:33:31;8.52;;;2.20;;
70866;SDS011;58487;53.474;49.470;2023-05-07T12:35:58;6.55;;;2.30;;
70866;SDS011;58487;53.474;49.470;2023-05-07T12:38:33;4.45;;;2.17;;
70866;SDS011;58487;53.474;49.470;2023-05-07T12:41:01;4.33;;;2.03;;
70866;SDS011;58487;53.474;49.470;2023-05-07T12:43:30;4.30;;;1.98;;
70866;SDS011;58487;53.474;49.470;2023-05-07T12:45:58;5.75;;;2.20;;
70866;SDS011;58487;53.474;49.470;2023-05-07T12:48:26;3.67;;;1.55;;
70866;SDS011;58487;53.474;49.470;2023-05-07T12:50:53;4.63;;;1.83;;
70866;SDS011;58487;53.474;49.470;2023-05-07T12:53:21;6.10;;;2.73;;
70866;SDS011;58487;53.474;49.470;2023-05-07T12:55:50;3.70;;;1.52;;
70866;SDS011;58487;53.474;49.470;2023-05-07T12:58:19;4.90;;;1.65;;
70866;SDS011;58487;53.474;49.470;2023-05-07T13:00:53;4.28;;;1.90;;
70866;SDS011;58487;53.474;49.470;2023-05-07T13:03:25;5.30;;;1.90;;
70866;SDS011;58487;53.474;49.470;2023-05-07T13:05:59;4.57;;;1.67;;
70866;SDS011;58487;53.474;49.470;2023-05-07T13:08:34;4.68;;;1.58;;
70866;SDS011;58487;53.474;49.470;2023-05-07T13:11:03;4.93;;;1.45;;
70866;SDS011;58487;53.474;49.470;2023-05-07T13:13:30;4.70;;;1.80;;
70866;SDS011;58487;53.474;49.470;2023-05-07T13:15:57;4.55;;;1.60;;
70866;SDS011;58487;53.474;49.470;2023-05-07T13:18:26;4.23;;;1.53;;
70866;SDS011;58487;53.474;49.470;2023-05-07T13:20:54;4.07;;;1.70;;
70866;SDS011;58487;53.474;49.470;2023-05-07T13:23:21;4.50;;;1.80;;
70866;SDS011;58487;53.474;49.470;2023-05-07T13:25:47;5.40;;;2.22;;
70866;SDS011;58487;53.474;49.470;2023-05-07T13:28:15;4.18;;;1.52;;
70866;SDS011;58487;53.474;49.470;2023-05-07T13:30:42;6.73;;;2.30;;
70866;SDS011;58487;53.474;49.470;2023-05-07T13:33:08;4.57;;;1.85;;
70866;SDS011;58487;53.474;49.470;2023-05-07T13:35:35;5.45;;;1.80;;
70866;SDS011;58487;53.474;49.470;2023-05-07T13:38:01;4.28;;;1.80;;
70866;SDS011;58487;53.474;49.470;2023-05-07T13:40:27;10.75;;;1.75;;
70866;SDS011;58487;53.474;49.470;2023-05-07T13:42:56;4.10;;;1.93;;
70866;SDS011;58487;53.474;49.470;2023-05-07T13:45:25;4.03;;;1.60;;
70866;SDS011;58487;53.474;49.470;2023-05-07T13:47:55;5.82;;;1.83;;
70866;SDS011;58487;53.474;49.470;2023-05-07T13:50:23;5.43;;;2.10;;
70866;SDS011;58487;53.474;49.470;2023-05-07T13:52:49;6.60;;;2.10;;
70866;SDS011;58487;53.474;49.470;2023-05-07T13:55:18;5.33;;;2.20;;
70866;SDS011;58487;53.474;49.470;2023-05-07T13:57:46;4.10;;;1.60;;
70866;SDS011;58487;53.474;49.470;2023-05-07T14:00:13;6.18;;;2.17;;
70866;SDS011;58487;53.474;49.470;2023-05-07T14:02:40;4.47;;;2.05;;
70866;SDS011;58487;53.474;49.470;2023-05-07T14:05:07;6.20;;;2.10;;
70866;SDS011;58487;53.474;49.470;2023-05-07T14:07:37;6.03;;;2.10;;
70866;SDS011;58487;53.474;49.470;2023-05-07T14:10:04;5.00;;;2.10;;
70866;SDS011;58487;53.474;49.470;2023-05-07T14:12:32;4.22;;;1.70;;
70866;SDS011;58487;53.474;49.470;2023-05-07T14:14:59;4.00;;;1.83;;
70866;SDS011;58487;53.474;49.470;2023-05-07T14:17:25;5.40;;;2.20;;
70866;SDS011;58487;53.474;49.470;2023-05-07T14:19:53;5.30;;;2.27;;
70866;SDS011;58487;53.474;49.470;2023-05-07T14:22:20;5.95;;;2.40;;
70866;SDS011;58487;53.474;49.470;2023-05-07T14:24:48;4.30;;;1.98;;
70866;SDS011;58487;53.474;49.470;2023-05-07T14:27:15;3.75;;;2.00;;
70866;SDS011;58487;53.474;49.470;2023-05-07T14:29:42;4.55;;;2.10;;
70866;SDS011;58487;53.474;49.470;2023-05-07T14:32:08;5.20;;;2.40;;
70866;SDS011;58487;53.474;49.470;2023-05-07T14:34:35;4.35;;;2.42;;
70866;SDS011;58487;53.474;49.470;2023-05-07T14:37:01;6.32;;;2.40;;
70866;SDS011;58487;53.474;49.470;2023-05-07T14:39:28;4.57;;;2.30;;
70866;SDS011;58487;53.474;49.470;2023-05-07T14:41:54;5.22;;;2.25;;
70866;SDS011;58487;53.474;49.470;2023-05-07T14:44:21;4.80;;;2.03;;
70866;SDS011;58487;53.474;49.470;2023-05-07T14:46:47;4.70;;;1.90;;
70866;SDS011;58487;53.474;49.470;2023-05-07T14:49:14;4.50;;;1.70;;
70866;SDS011;58487;53.474;49.470;2023-05-07T14:51:44;5.57;;;2.10;;